Terminal Aerodrome Forecast
Issued by NWS

Home | Current Version | Previous Version | Text Only | Print | Product List | Glossary On
Versions: 1 2 3 4 5 6 7 8 9 10 11 12 13 14 15 16
259
FTAK31 PAJN 182340 RRA
TAFAPG
TAF
PAPG 182340Z 1900/1924 15008KT P6SM -SHRA FEW012 BKN035 OVC050
      TEMPO 1900/1904 BKN012 OVC035
     FM191200 VRB03KT P6SM VCSH BKN040 BKN090
     FM191800 06003KT P6SM VCSH BKN060
      AMD LTD TO CLD VIS AND WIND 1906/1915=

USA.gov is the U.S. government's official web portal to all federal, state and local government web resources and services.